Nearby METAR Reports

 

K1V6 - Canon City, Colorado, USA
Distance from station: NE 34mi, 55km
Updated: 02/01/2023 7:35am MST
Clear
Clear
 Wind from W
Wind: W 17 mph , 28 km/h
Temperature: 25°F , -4°C
Wind Chill: 12°F , -11°C
Dew Point: 7°F , -14°C
Humidity: 46%
Barometer: 30.08 inHg , 1018.6 hPa
Clouds: Clear
Visibility: 10 miles , 16 km
2023/02/01 14:35 K1V6 011435Z AUTO 28015KT 10SM CLR M04/M14 A3008 RMK AO2
K04V - Saguache Muni, Colorado, USA
Distance from station: W 35mi, 56km
Updated: 02/01/2023 7:31am MST

 Wind from WNW
Wind: WNW 16 mph , 26 km/h
Temperature: 10°F , -12°C
Wind Chill: -7°F , -22°C
Dew Point: -6°F , -21°C
Humidity: 47%
Barometer: 30.20 inHg , 1022.7 hPa
Visibility: 10 miles , 16 km
2023/02/01 14:31 K04V 011431Z AUTO 30014KT 10SM M12/M21 A3020 RMK AO2
 
KANK - Salida, Colorado, USA
Distance from station: NW 43mi, 69km
Updated: 02/01/2023 7:30am MST
Clear
Clear
 Wind from NNW
Wind: NNW 12 mph , 19 km/h
Temperature: 18°F , -8°C
Wind Chill: 5°F , -15°C
Dew Point: -4°F , -20°C
Humidity: 38%
Barometer: 30.20 inHg , 1022.7 hPa
Clouds: Clear
Visibility: 10 miles , 16 km
2023/02/01 14:30 KANK 011430Z AUTO 34010KT 10SM CLR M08/M20 A3020 RMK AO1 T10821196
KVTP - La Veta Pass, Colorado, USA
Distance from station: SSE 44mi, 71km
Updated: 02/01/2023 7:35am MST
Clear
Clear
 Wind from W
Wind: W 21 mph , 33 km/h
Temperature: 10°F , -12°C
Wind Chill: -9°F , -23°C
Dew Point: -0°F , -18°C
Humidity: 61%
Barometer: 30.04 inHg , 1017.3 hPa
Clouds: Clear
Visibility: 10 miles , 16 km
2023/02/01 14:35 KVTP 011435Z AUTO 26018KT 10SM CLR M12/M18 A3004 RMK AO2
 
KALS - Alamosa, Colorado, USA
Distance from station: SSW 48mi, 77km
Updated: 02/01/2023 6:52am MST
Clear
Clear
 Wind from SW
Wind: SW 8 mph , 13 km/h
Temperature: -0°F , -18°C
Wind Chill: -14°F , -26°C
Dew Point: -6°F , -21°C
Humidity: 78%
Barometer: 30.17 inHg , 1021.7 hPa
Clouds: Clear
Visibility: 10 miles , 16 km
2023/02/01 13:52 KALS 011352Z AUTO 23007KT 10SM CLR M18/M21 A3017 RMK AO2 SLP292 T11831211